Berit — ZDHX2 — position and weather

sailwx.info

Track history (hours):
 
Tides and Currents Weather Stations Pressure Air Temp Water Temp Dewpoint Dewpoint Depression Visibility Wind Speed Wind Dir Waves Ship Positions

Berit

Last reported at 2017-Nov-25 09:29 UTC. Time now 2017-Nov-25 09:52 UTC.
Position N 51°54' E 004°25'.

Length 83 m; draft 3.4 m.

Type: Cargo ship. MMSI: 236386000.

Date/timePositionNaut miles runAvg speedWind from/ knotsBaromVisibWave heightAir tempDewpointWater temp
2017-Nov-25 09:29N 51°54' E 004°25'0 0.0
2017-Nov-25 08:59N 51°54' E 004°25'0 0.0
2017-Nov-25 08:29N 51°54' E 004°25'0 0.0
2017-Nov-25 07:59N 51°54' E 004°25'0 0.0
2017-Nov-25 07:29N 51°55' E 004°25'0 0.0
2017-Nov-25 06:59N 51°54' E 004°25'0 0.0
2017-Nov-25 06:29N 51°54' E 004°25'0 0.0
2017-Nov-25 05:59N 51°54' E 004°25'0 0.0
2017-Nov-25 05:26N 51°54' E 004°25'0 0.0
2017-Nov-25 04:59N 51°54' E 004°25'0 0.0
2017-Nov-25 04:29N 51°54' E 004°25'0 0.0
2017-Nov-25 03:59N 51°54' E 004°25'0 0.0
2017-Nov-25 03:29N 51°54' E 004°25'0 0.0
2017-Nov-25 02:59N 51°54' E 004°25'0 0.0
2017-Nov-25 02:29N 51°54' E 004°25'0 0.0
2017-Nov-25 01:59N 51°54' E 004°25'0 0.0
2017-Nov-25 01:29N 51°54' E 004°25'0 0.0
2017-Nov-25 00:59N 51°55' E 004°25'0 0.0
2017-Nov-25 00:29N 51°54' E 004°25'0 0.0
2017-Nov-24 23:59N 51°54' E 004°25'0 0.0
2017-Nov-24 23:29N 51°54' E 004°25'0 0.0
2017-Nov-24 22:59N 51°54' E 004°25'0 0.0
2017-Nov-24 22:29N 51°54' E 004°25'0 0.0
2017-Nov-24 21:59N 51°54' E 004°25'0 0.0
2017-Nov-24 21:29N 51°54' E 004°25'0 0.0
2017-Nov-24 20:59N 51°54' E 004°25'0 0.0
2017-Nov-24 20:29N 51°54' E 004°25'0 0.0
2017-Nov-24 19:59N 51°54' E 004°25'0 0.0
2017-Nov-24 19:29N 51°54' E 004°25'0 0.0
2017-Nov-24 18:59N 51°54' E 004°25'0 0.0
2017-Nov-24 18:29N 51°54' E 004°25'0 0.0
2017-Nov-24 17:59N 51°54' E 004°25'0 0.2
2017-Nov-24 17:29N 51°55' E 004°25'0 0.1
2017-Nov-24 16:59N 51°55' E 004°25'0 0.0
2017-Nov-24 16:29N 51°55' E 004°25'0 0.0
2017-Nov-24 15:59N 51°55' E 004°25'0 0.0
2017-Nov-24 15:29N 51°55' E 004°25'0 0.0
2017-Nov-24 14:59N 51°55' E 004°25'0 0.0
2017-Nov-24 14:29N 51°55' E 004°25'0 0.1
2017-Nov-24 14:01N 51°55' E 004°25'2 3.3
2017-Nov-24 13:30N 51°54' E 004°22'4 8.5
2017-Nov-24 13:00N 51°54' E 004°16'4 8.0
2017-Nov-24 12:30N 51°57' E 004°10'4 7.8
2017-Nov-24 12:00N 51°59' E 004°05'4 7.7
2017-Nov-24 11:30N 51°60' E 003°59'4 8.8
2017-Nov-24 11:00N 51°59' E 003°52'5 9.5
2017-Nov-24 10:31N 51°59' E 003°44'22 8.9
2017-Nov-24 07:59N 51°44' E 003°17'710.9
2017-Nov-24 07:18N 51°37' E 003°22'311.5
2017-Nov-24 07:00N 51°34' E 003°25'611.6
2017-Nov-24 06:30N 51°29' E 003°30'5 9.9
2017-Nov-24 06:00N 51°26' E 003°37'3 5.6
2017-Nov-24 05:31N 51°27' E 003°41'1 2.0
2017-Nov-24 04:54N 51°27' E 003°42'0 0.0
2017-Nov-24 04:30N 51°27' E 003°42'0 0.0
2017-Nov-24 04:00N 51°27' E 003°42'0 0.0
2017-Nov-24 03:24N 51°27' E 003°42'0 0.0
2017-Nov-24 03:00N 51°27' E 003°42'0 0.0
2017-Nov-24 02:27N 51°27' E 003°42'0 0.0
2017-Nov-24 02:00N 51°27' E 003°42'0 0.0
2017-Nov-24 01:30N 51°27' E 003°42'0 0.0
2017-Nov-24 01:00N 51°27' E 003°42'0 0.0
2017-Nov-24 00:21N 51°27' E 003°42'0 0.0
2017-Nov-24 00:00N 51°27' E 003°42'0 0.0
2017-Nov-23 23:30N 51°27' E 003°42'0 0.0
2017-Nov-23 23:00N 51°27' E 003°42'0 0.0
2017-Nov-23 22:24N 51°27' E 003°42'0 0.0
2017-Nov-23 22:00N 51°27' E 003°42'0 0.0
2017-Nov-23 21:18N 51°27' E 003°42'0 0.0
2017-Nov-23 21:00N 51°27' E 003°42'0 0.1
2017-Nov-23 20:18N 51°27' E 003°42'0 0.0
2017-Nov-23 20:00N 51°27' E 003°42'0 0.0
2017-Nov-23 19:27N 51°27' E 003°42'0 0.0
2017-Nov-23 19:00N 51°27' E 003°42'0 0.0
2017-Nov-23 18:30N 51°27' E 003°42'0 0.0
2017-Nov-23 17:57N 51°27' E 003°42'0 0.0
2017-Nov-23 17:27N 51°27' E 003°42'0 0.0
2017-Nov-23 17:00N 51°27' E 003°42'0 0.0
2017-Nov-23 16:30N 51°27' E 003°42'0 0.0
2017-Nov-23 16:00N 51°27' E 003°42'0 0.0
2017-Nov-23 15:30N 51°27' E 003°42'0 0.0
2017-Nov-23 14:54N 51°27' E 003°42'0 0.0
2017-Nov-23 14:30N 51°27' E 003°42'0 0.0
2017-Nov-23 14:00N 51°27' E 003°42'0 0.0
2017-Nov-23 13:24N 51°27' E 003°42'0 0.0
2017-Nov-23 13:00N 51°27' E 003°42'0 0.0
2017-Nov-23 12:30N 51°27' E 003°42'0 0.0
2017-Nov-23 12:00N 51°27' E 003°42'0 0.0
2017-Nov-23 11:30N 51°27' E 003°42'0 0.0
2017-Nov-23 11:00N 51°27' E 003°42'0 0.0
2017-Nov-23 10:30N 51°27' E 003°42'1 1.7
2017-Nov-23 10:00N 51°27' E 003°42'4 7.0
2017-Nov-23 09:30N 51°26' E 003°37'4 8.3
2017-Nov-23 09:00N 51°28' E 003°31'4 7.9
2017-Nov-23 08:30N 51°31' E 003°26'3 6.9
2017-Nov-23 08:00N 51°34' E 003°25'4 7.5
2017-Nov-23 07:30N 51°37' E 003°21'4 7.2
2017-Nov-23 07:00N 51°40' E 003°18'3 6.6
2017-Nov-23 06:30N 51°43' E 003°15'3 5.9
2017-Nov-23 06:00N 51°46' E 003°14'1 2.4
2017-Nov-23 05:24N 51°47' E 003°14'5 0.6
2017-Nov-22 21:11N 51°50' E 003°21'0 0.0
2017-Nov-22 20:50N 51°50' E 003°21'0 0.9
2017-Nov-22 20:30N 51°50' E 003°20'3 5.8
2017-Nov-22 20:00N 51°53' E 003°18'  
2017-Nov-20 00:30N 60°45' E 004°19'5 9.0
2017-Nov-20 00:00N 60°49' E 004°18'4 8.8
2017-Nov-19 23:30N 60°54' E 004°17'4 8.8
2017-Nov-19 23:01N 60°58' E 004°16'4 8.5
2017-Nov-19 22:30N 61°02' E 004°17'4 8.3
2017-Nov-19 22:00N 61°06' E 004°18'4 8.6
2017-Nov-19 21:30N 61°11' E 004°19'4 8.8
2017-Nov-19 21:00N 61°15' E 004°20'4 9.0
2017-Nov-19 20:30N 61°20' E 004°21'5 9.2
2017-Nov-19 20:00N 61°24' E 004°22'5 9.4
2017-Nov-19 19:30N 61°29' E 004°23'5 9.0
2017-Nov-19 19:00N 61°33' E 004°24'4 8.9
2017-Nov-19 18:30N 61°38' E 004°25'5 9.3
2017-Nov-19 18:00N 61°42' E 004°27'5 9.1
2017-Nov-19 17:30N 61°46' E 004°30'5 9.4
2017-Nov-19 17:00N 61°51' E 004°34'5 9.4
2017-Nov-19 16:30N 61°55' E 004°37'5 9.4
2017-Nov-19 16:00N 61°60' E 004°41'5 9.4
2017-Nov-19 15:30N 62°04' E 004°44'5 9.2
2017-Nov-19 15:00N 62°08' E 004°47'5 9.1
2017-Nov-19 14:30N 62°12' E 004°52'4 8.9
2017-Nov-19 14:00N 62°16' E 004°57'4 8.5
2017-Nov-19 13:30N 62°19' E 005°03'4 8.5
2017-Nov-19 13:00N 62°23' E 005°08'5 8.8
2017-Nov-19 12:30N 62°26' E 005°14'4 8.7
2017-Nov-19 12:00N 62°30' E 005°20'4 8.8
2017-Nov-19 11:30N 62°33' E 005°26'4 8.9
2017-Nov-19 11:00N 62°37' E 005°32'4 9.0
2017-Nov-19 10:30N 62°41' E 005°37'5 9.3
2017-Nov-19 10:00N 62°45' E 005°42'4 8.6
2017-Nov-19 09:30N 62°48' E 005°47'4 8.4
2017-Nov-19 09:00N 62°51' E 005°53'4 8.4
2017-Nov-19 08:30N 62°54' E 005°60'4 8.4
2017-Nov-19 08:00N 62°57' E 006°06'4 8.4
2017-Nov-19 07:30N 63°01' E 006°12'4 8.6
2017-Nov-19 07:00N 63°04' E 006°18'237 7.6
2017-Nov-17 23:53N 66°15' E 011°45'2 6.5
2017-Nov-17 23:30N 66°15' E 011°51'3 6.9
2017-Nov-17 23:00N 66°16' E 011°59'4 7.1
2017-Nov-17 22:30N 66°16' E 012°08'4 7.6
2017-Nov-17 22:01N 66°17' E 012°17'5 9.2
2017-Nov-17 21:30N 66°15' E 012°28'5 9.5
2017-Nov-17 21:01N 66°14' E 012°39'510.2
2017-Nov-17 20:30N 66°10' E 012°49'5 9.7
2017-Nov-17 20:00N 66°10' E 013°01'510.7
2017-Nov-17 19:30N 66°12' E 013°13'510.0
2017-Nov-17 19:00N 66°14' E 013°25'510.2
2017-Nov-17 18:30N 66°14' E 013°37'510.1
2017-Nov-17 18:00N 66°15' E 013°49'5 9.9
2017-Nov-17 17:30N 66°18' E 014°01'4 7.3
2017-Nov-17 17:00N 66°20' E 014°08'0 0.0
2017-Nov-17 16:30N 66°20' E 014°08'0 0.0
2017-Nov-17 16:00N 66°20' E 014°08'0 0.0
2017-Nov-17 15:30N 66°20' E 014°08'0 0.0
2017-Nov-17 15:00N 66°20' E 014°08'0 0.0
2017-Nov-17 14:30N 66°20' E 014°08'0 0.0
2017-Nov-17 14:00N 66°20' E 014°08'0 0.0
2017-Nov-17 13:30N 66°20' E 014°08'0 0.0
2017-Nov-17 13:00N 66°20' E 014°08'0 0.0
2017-Nov-17 12:30N 66°20' E 014°08'0 0.0
2017-Nov-17 12:00N 66°20' E 014°08'0 0.0
2017-Nov-17 11:30N 66°20' E 014°08'0 0.0
2017-Nov-17 11:00N 66°20' E 014°08'0 0.0
2017-Nov-17 10:30N 66°20' E 014°08'0 0.0
2017-Nov-17 10:00N 66°20' E 014°08'0 0.0
2017-Nov-17 09:30N 66°20' E 014°08'0 0.0
2017-Nov-17 09:00N 66°20' E 014°08'0 0.0
2017-Nov-17 08:30N 66°20' E 014°08'0 0.0
2017-Nov-17 08:00N 66°20' E 014°08'0 0.0
2017-Nov-17 07:30N 66°20' E 014°08'0 0.0
2017-Nov-17 07:00N 66°20' E 014°08'0 0.0
2017-Nov-17 06:30N 66°20' E 014°08'0 0.0
2017-Nov-17 06:00N 66°20' E 014°08'0 0.0
2017-Nov-17 05:30N 66°20' E 014°08'0 0.0
2017-Nov-17 05:00N 66°20' E 014°08'0 0.0
2017-Nov-17 04:27N 66°20' E 014°08'0 0.0
2017-Nov-17 04:00N 66°20' E 014°08'0 0.0
2017-Nov-17 03:30N 66°20' E 014°08'0 0.0
2017-Nov-17 03:00N 66°20' E 014°08'0 0.0
2017-Nov-17 02:30N 66°20' E 014°08'0 0.0
2017-Nov-17 02:00N 66°20' E 014°08'0 0.0
2017-Nov-17 01:30N 66°20' E 014°08'0 0.0
2017-Nov-17 01:00N 66°20' E 014°08'0 0.0
2017-Nov-17 00:30N 66°20' E 014°08'0 0.0
2017-Nov-17 00:00N 66°20' E 014°08'0 0.0
2017-Nov-16 23:30N 66°20' E 014°08'0 0.0
2017-Nov-16 23:00N 66°20' E 014°08'0 0.0
2017-Nov-16 22:30N 66°20' E 014°08'0 0.0
2017-Nov-16 22:00N 66°20' E 014°08'0 0.4
2017-Nov-16 21:30N 66°19' E 014°08'1 2.2
2017-Nov-16 21:00N 66°18' E 014°07'0 0.0
2017-Nov-16 20:28N 66°18' E 014°07'0 0.0
2017-Nov-16 19:58N 66°18' E 014°07'0 0.0
2017-Nov-16 19:25N 66°18' E 014°07'0 0.0
2017-Nov-16 18:58N 66°18' E 014°07'0 0.0
2017-Nov-16 18:28N 66°18' E 014°07'0 0.0
2017-Nov-16 17:58N 66°18' E 014°07'0 0.0
2017-Nov-16 17:28N 66°18' E 014°07'0 0.0
2017-Nov-16 16:58N 66°18' E 014°07'0 0.0
2017-Nov-16 16:28N 66°18' E 014°07'0 0.0
2017-Nov-16 15:58N 66°18' E 014°07'0 0.0
2017-Nov-16 15:28N 66°18' E 014°07'0 0.0
2017-Nov-16 14:58N 66°18' E 014°07'0 0.0
2017-Nov-16 14:28N 66°18' E 014°07'0 0.0
2017-Nov-16 13:58N 66°18' E 014°07'0 0.0
2017-Nov-16 13:28N 66°18' E 014°07'0 0.0
2017-Nov-16 12:58N 66°18' E 014°07'0 0.0
2017-Nov-16 12:28N 66°18' E 014°07'0 0.0
2017-Nov-16 11:58N 66°18' E 014°07'0 0.0
2017-Nov-16 11:28N 66°18' E 014°07'0 0.0
2017-Nov-16 10:58N 66°18' E 014°07'0 0.5
2017-Nov-16 10:30N 66°18' E 014°06'510.0
2017-Nov-16 09:59N 66°16' E 013°55'511.2
2017-Nov-16 09:30N 66°15' E 013°42'510.6
2017-Nov-16 09:00N 66°14' E 013°29'5 9.7
2017-Nov-16 08:30N 66°14' E 013°17'611.1
2017-Nov-16 08:00N 66°11' E 013°06'611.2
2017-Nov-16 07:30N 66°10' E 012°52'510.8
2017-Nov-16 07:00N 66°13' E 012°41'5 9.5
2017-Nov-16 06:30N 66°15' E 012°31'5 9.8
2017-Nov-16 06:00N 66°17' E 012°19'5 9.9
2017-Nov-16 05:30N 66°19' E 012°09'510.1
2017-Nov-16 05:00N 66°23' E 011°59'5 9.9
2017-Nov-16 04:30N 66°26' E 011°51'5 9.0
2017-Nov-16 04:00N 66°30' E 011°47'4 7.7
2017-Nov-16 03:30N 66°34' E 011°51'4 7.7
2017-Nov-16 02:59N 66°37' E 011°56'31 8.1
2017-Nov-15 23:07N 67°03' E 012°43'1 9.1
2017-Nov-15 23:00N 67°04' E 012°45'4 8.9
2017-Nov-15 22:30N 67°07' E 012°52'5 9.3
2017-Nov-15 22:00N 67°11' E 012°58'5 9.0
2017-Nov-15 21:30N 67°15' E 013°05'4 9.0
2017-Nov-15 21:00N 67°18' E 013°13'5 9.6
2017-Nov-15 20:30N 67°22' E 013°20'5 9.8
2017-Nov-15 20:00N 67°26' E 013°28'5 9.9
2017-Nov-15 19:30N 67°30' E 013°37'5 9.9
2017-Nov-15 19:00N 67°33' E 013°45'5 9.7
2017-Nov-15 18:30N 67°37' E 013°53'5 9.6
2017-Nov-15 18:00N 67°41' E 014°00'5 9.8
2017-Nov-15 17:30N 67°45' E 014°08'5 9.4
2017-Nov-15 17:00N 67°49' E 014°16'5 9.5
2017-Nov-15 16:30N 67°52' E 014°25'510.0
2017-Nov-15 16:01N 67°55' E 014°35'510.0
2017-Nov-15 15:30N 67°58' E 014°46'5 9.8
2017-Nov-15 15:00N 68°01' E 014°56'510.3
2017-Nov-15 14:30N 68°05' E 015°06'510.5
2017-Nov-15 14:00N 68°08' E 015°16'510.2
2017-Nov-15 13:30N 68°12' E 015°27'2 3.3
2017-Nov-15 13:00N 68°13' E 015°26'510.2
2017-Nov-15 12:29N 68°12' E 015°12'5 9.9
2017-Nov-15 12:00N 68°12' E 014°59'4 8.3
2017-Nov-15 11:30N 68°16' E 014°58'5 9.9
2017-Nov-15 11:01N 68°21' E 015°02'4 8.8
2017-Nov-15 10:30N 68°25' E 015°08'5 9.0
2017-Nov-15 10:00N 68°29' E 015°13'5 9.7
2017-Nov-15 09:30N 68°33' E 015°05'  
Track history (hours):
 
Tides and Currents Weather Stations Pressure Air Temp Water Temp Dewpoint Dewpoint Depression Visibility Wind Speed Wind Dir Waves Ship Positions

Berit

Last reported at 2017-Nov-25 09:29 UTC. Time now 2017-Nov-25 09:52 UTC.
Position N 51°54' E 004°25'.

Length 83 m; draft 3.4 m.

Type: Cargo ship. MMSI: 236386000.

Date/timePositionNaut miles runAvg speedWind from/ knotsBaromVisibWave heightAir tempDewpointWater temp
2017-Nov-25 09:29N 51°54' E 004°25'0 0.0
2017-Nov-25 08:59N 51°54' E 004°25'0 0.0
2017-Nov-25 08:29N 51°54' E 004°25'0 0.0
2017-Nov-25 07:59N 51°54' E 004°25'0 0.0
2017-Nov-25 07:29N 51°55' E 004°25'0 0.0
2017-Nov-25 06:59N 51°54' E 004°25'0 0.0
2017-Nov-25 06:29N 51°54' E 004°25'0 0.0
2017-Nov-25 05:59N 51°54' E 004°25'0 0.0
2017-Nov-25 05:26N 51°54' E 004°25'0 0.0
2017-Nov-25 04:59N 51°54' E 004°25'0 0.0
2017-Nov-25 04:29N 51°54' E 004°25'0 0.0
2017-Nov-25 03:59N 51°54' E 004°25'0 0.0
2017-Nov-25 03:29N 51°54' E 004°25'0 0.0
2017-Nov-25 02:59N 51°54' E 004°25'0 0.0
2017-Nov-25 02:29N 51°54' E 004°25'0 0.0
2017-Nov-25 01:59N 51°54' E 004°25'0 0.0
2017-Nov-25 01:29N 51°54' E 004°25'0 0.0
2017-Nov-25 00:59N 51°55' E 004°25'0 0.0
2017-Nov-25 00:29N 51°54' E 004°25'0 0.0
2017-Nov-24 23:59N 51°54' E 004°25'0 0.0
2017-Nov-24 23:29N 51°54' E 004°25'0 0.0
2017-Nov-24 22:59N 51°54' E 004°25'0 0.0
2017-Nov-24 22:29N 51°54' E 004°25'0 0.0
2017-Nov-24 21:59N 51°54' E 004°25'0 0.0
2017-Nov-24 21:29N 51°54' E 004°25'0 0.0
2017-Nov-24 20:59N 51°54' E 004°25'0 0.0
2017-Nov-24 20:29N 51°54' E 004°25'0 0.0
2017-Nov-24 19:59N 51°54' E 004°25'0 0.0
2017-Nov-24 19:29N 51°54' E 004°25'0 0.0
2017-Nov-24 18:59N 51°54' E 004°25'0 0.0
2017-Nov-24 18:29N 51°54' E 004°25'0 0.0
2017-Nov-24 17:59N 51°54' E 004°25'0 0.2
2017-Nov-24 17:29N 51°55' E 004°25'0 0.1
2017-Nov-24 16:59N 51°55' E 004°25'0 0.0
2017-Nov-24 16:29N 51°55' E 004°25'0 0.0
2017-Nov-24 15:59N 51°55' E 004°25'0 0.0
2017-Nov-24 15:29N 51°55' E 004°25'0 0.0
2017-Nov-24 14:59N 51°55' E 004°25'0 0.0
2017-Nov-24 14:29N 51°55' E 004°25'0 0.1
2017-Nov-24 14:01N 51°55' E 004°25'2 3.3
2017-Nov-24 13:30N 51°54' E 004°22'4 8.5
2017-Nov-24 13:00N 51°54' E 004°16'4 8.0
2017-Nov-24 12:30N 51°57' E 004°10'4 7.8
2017-Nov-24 12:00N 51°59' E 004°05'4 7.7
2017-Nov-24 11:30N 51°60' E 003°59'4 8.8
2017-Nov-24 11:00N 51°59' E 003°52'5 9.5
2017-Nov-24 10:31N 51°59' E 003°44'22 8.9
2017-Nov-24 07:59N 51°44' E 003°17'710.9
2017-Nov-24 07:18N 51°37' E 003°22'311.5
2017-Nov-24 07:00N 51°34' E 003°25'611.6
2017-Nov-24 06:30N 51°29' E 003°30'5 9.9
2017-Nov-24 06:00N 51°26' E 003°37'3 5.6
2017-Nov-24 05:31N 51°27' E 003°41'1 2.0
2017-Nov-24 04:54N 51°27' E 003°42'0 0.0
2017-Nov-24 04:30N 51°27' E 003°42'0 0.0
2017-Nov-24 04:00N 51°27' E 003°42'0 0.0
2017-Nov-24 03:24N 51°27' E 003°42'0 0.0
2017-Nov-24 03:00N 51°27' E 003°42'0 0.0
2017-Nov-24 02:27N 51°27' E 003°42'0 0.0
2017-Nov-24 02:00N 51°27' E 003°42'0 0.0
2017-Nov-24 01:30N 51°27' E 003°42'0 0.0
2017-Nov-24 01:00N 51°27' E 003°42'0 0.0
2017-Nov-24 00:21N 51°27' E 003°42'0 0.0
2017-Nov-24 00:00N 51°27' E 003°42'0 0.0
2017-Nov-23 23:30N 51°27' E 003°42'0 0.0
2017-Nov-23 23:00N 51°27' E 003°42'0 0.0
2017-Nov-23 22:24N 51°27' E 003°42'0 0.0
2017-Nov-23 22:00N 51°27' E 003°42'0 0.0
2017-Nov-23 21:18N 51°27' E 003°42'0 0.0
2017-Nov-23 21:00N 51°27' E 003°42'0 0.1
2017-Nov-23 20:18N 51°27' E 003°42'0 0.0
2017-Nov-23 20:00N 51°27' E 003°42'0 0.0
2017-Nov-23 19:27N 51°27' E 003°42'0 0.0
2017-Nov-23 19:00N 51°27' E 003°42'0 0.0
2017-Nov-23 18:30N 51°27' E 003°42'0 0.0
2017-Nov-23 17:57N 51°27' E 003°42'0 0.0
2017-Nov-23 17:27N 51°27' E 003°42'0 0.0
2017-Nov-23 17:00N 51°27' E 003°42'0 0.0
2017-Nov-23 16:30N 51°27' E 003°42'0 0.0
2017-Nov-23 16:00N 51°27' E 003°42'0 0.0
2017-Nov-23 15:30N 51°27' E 003°42'0 0.0
2017-Nov-23 14:54N 51°27' E 003°42'0 0.0
2017-Nov-23 14:30N 51°27' E 003°42'0 0.0
2017-Nov-23 14:00N 51°27' E 003°42'0 0.0
2017-Nov-23 13:24N 51°27' E 003°42'0 0.0
2017-Nov-23 13:00N 51°27' E 003°42'0 0.0
2017-Nov-23 12:30N 51°27' E 003°42'0 0.0
2017-Nov-23 12:00N 51°27' E 003°42'0 0.0
2017-Nov-23 11:30N 51°27' E 003°42'0 0.0
2017-Nov-23 11:00N 51°27' E 003°42'0 0.0
2017-Nov-23 10:30N 51°27' E 003°42'1 1.7
2017-Nov-23 10:00N 51°27' E 003°42'4 7.0
2017-Nov-23 09:30N 51°26' E 003°37'4 8.3
2017-Nov-23 09:00N 51°28' E 003°31'4 7.9
2017-Nov-23 08:30N 51°31' E 003°26'3 6.9
2017-Nov-23 08:00N 51°34' E 003°25'4 7.5
2017-Nov-23 07:30N 51°37' E 003°21'4 7.2
2017-Nov-23 07:00N 51°40' E 003°18'3 6.6
2017-Nov-23 06:30N 51°43' E 003°15'3 5.9
2017-Nov-23 06:00N 51°46' E 003°14'1 2.4
2017-Nov-23 05:24N 51°47' E 003°14'5 0.6
2017-Nov-22 21:11N 51°50' E 003°21'0 0.0
2017-Nov-22 20:50N 51°50' E 003°21'0 0.9
2017-Nov-22 20:30N 51°50' E 003°20'3 5.8
2017-Nov-22 20:00N 51°53' E 003°18'  
2017-Nov-20 00:30N 60°45' E 004°19'5 9.0
2017-Nov-20 00:00N 60°49' E 004°18'4 8.8
2017-Nov-19 23:30N 60°54' E 004°17'4 8.8
2017-Nov-19 23:01N 60°58' E 004°16'4 8.5
2017-Nov-19 22:30N 61°02' E 004°17'4 8.3
2017-Nov-19 22:00N 61°06' E 004°18'4 8.6
2017-Nov-19 21:30N 61°11' E 004°19'4 8.8
2017-Nov-19 21:00N 61°15' E 004°20'4 9.0
2017-Nov-19 20:30N 61°20' E 004°21'5 9.2
2017-Nov-19 20:00N 61°24' E 004°22'5 9.4
2017-Nov-19 19:30N 61°29' E 004°23'5 9.0
2017-Nov-19 19:00N 61°33' E 004°24'4 8.9
2017-Nov-19 18:30N 61°38' E 004°25'5 9.3
2017-Nov-19 18:00N 61°42' E 004°27'5 9.1
2017-Nov-19 17:30N 61°46' E 004°30'5 9.4
2017-Nov-19 17:00N 61°51' E 004°34'5 9.4
2017-Nov-19 16:30N 61°55' E 004°37'5 9.4
2017-Nov-19 16:00N 61°60' E 004°41'5 9.4
2017-Nov-19 15:30N 62°04' E 004°44'5 9.2
2017-Nov-19 15:00N 62°08' E 004°47'5 9.1
2017-Nov-19 14:30N 62°12' E 004°52'4 8.9
2017-Nov-19 14:00N 62°16' E 004°57'4 8.5
2017-Nov-19 13:30N 62°19' E 005°03'4 8.5
2017-Nov-19 13:00N 62°23' E 005°08'5 8.8
2017-Nov-19 12:30N 62°26' E 005°14'4 8.7
2017-Nov-19 12:00N 62°30' E 005°20'4 8.8
2017-Nov-19 11:30N 62°33' E 005°26'4 8.9
2017-Nov-19 11:00N 62°37' E 005°32'4 9.0
2017-Nov-19 10:30N 62°41' E 005°37'5 9.3
2017-Nov-19 10:00N 62°45' E 005°42'4 8.6
2017-Nov-19 09:30N 62°48' E 005°47'4 8.4
2017-Nov-19 09:00N 62°51' E 005°53'4 8.4
2017-Nov-19 08:30N 62°54' E 005°60'4 8.4
2017-Nov-19 08:00N 62°57' E 006°06'4 8.4
2017-Nov-19 07:30N 63°01' E 006°12'4 8.6
2017-Nov-19 07:00N 63°04' E 006°18'237 7.6
2017-Nov-17 23:53N 66°15' E 011°45'2 6.5
2017-Nov-17 23:30N 66°15' E 011°51'3 6.9
2017-Nov-17 23:00N 66°16' E 011°59'4 7.1
2017-Nov-17 22:30N 66°16' E 012°08'4 7.6
2017-Nov-17 22:01N 66°17' E 012°17'5 9.2
2017-Nov-17 21:30N 66°15' E 012°28'5 9.5
2017-Nov-17 21:01N 66°14' E 012°39'510.2
2017-Nov-17 20:30N 66°10' E 012°49'5 9.7
2017-Nov-17 20:00N 66°10' E 013°01'510.7
2017-Nov-17 19:30N 66°12' E 013°13'510.0
2017-Nov-17 19:00N 66°14' E 013°25'510.2
2017-Nov-17 18:30N 66°14' E 013°37'510.1
2017-Nov-17 18:00N 66°15' E 013°49'5 9.9
2017-Nov-17 17:30N 66°18' E 014°01'4 7.3
2017-Nov-17 17:00N 66°20' E 014°08'0 0.0
2017-Nov-17 16:30N 66°20' E 014°08'0 0.0
2017-Nov-17 16:00N 66°20' E 014°08'0 0.0
2017-Nov-17 15:30N 66°20' E 014°08'0 0.0
2017-Nov-17 15:00N 66°20' E 014°08'0 0.0
2017-Nov-17 14:30N 66°20' E 014°08'0 0.0
2017-Nov-17 14:00N 66°20' E 014°08'0 0.0
2017-Nov-17 13:30N 66°20' E 014°08'0 0.0
2017-Nov-17 13:00N 66°20' E 014°08'0 0.0
2017-Nov-17 12:30N 66°20' E 014°08'0 0.0
2017-Nov-17 12:00N 66°20' E 014°08'0 0.0
2017-Nov-17 11:30N 66°20' E 014°08'0 0.0
2017-Nov-17 11:00N 66°20' E 014°08'0 0.0
2017-Nov-17 10:30N 66°20' E 014°08'0 0.0
2017-Nov-17 10:00N 66°20' E 014°08'0 0.0
2017-Nov-17 09:30N 66°20' E 014°08'0 0.0
2017-Nov-17 09:00N 66°20' E 014°08'0 0.0
2017-Nov-17 08:30N 66°20' E 014°08'0 0.0
2017-Nov-17 08:00N 66°20' E 014°08'0 0.0
2017-Nov-17 07:30N 66°20' E 014°08'0 0.0
2017-Nov-17 07:00N 66°20' E 014°08'0 0.0
2017-Nov-17 06:30N 66°20' E 014°08'0 0.0
2017-Nov-17 06:00N 66°20' E 014°08'0 0.0
2017-Nov-17 05:30N 66°20' E 014°08'0 0.0
2017-Nov-17 05:00N 66°20' E 014°08'0 0.0
2017-Nov-17 04:27N 66°20' E 014°08'0 0.0
2017-Nov-17 04:00N 66°20' E 014°08'0 0.0
2017-Nov-17 03:30N 66°20' E 014°08'0 0.0
2017-Nov-17 03:00N 66°20' E 014°08'0 0.0
2017-Nov-17 02:30N 66°20' E 014°08'0 0.0
2017-Nov-17 02:00N 66°20' E 014°08'0 0.0
2017-Nov-17 01:30N 66°20' E 014°08'0 0.0
2017-Nov-17 01:00N 66°20' E 014°08'0 0.0
2017-Nov-17 00:30N 66°20' E 014°08'0 0.0
2017-Nov-17 00:00N 66°20' E 014°08'0 0.0
2017-Nov-16 23:30N 66°20' E 014°08'0 0.0
2017-Nov-16 23:00N 66°20' E 014°08'0 0.0
2017-Nov-16 22:30N 66°20' E 014°08'0 0.0
2017-Nov-16 22:00N 66°20' E 014°08'0 0.4
2017-Nov-16 21:30N 66°19' E 014°08'1 2.2
2017-Nov-16 21:00N 66°18' E 014°07'0 0.0
2017-Nov-16 20:28N 66°18' E 014°07'0 0.0
2017-Nov-16 19:58N 66°18' E 014°07'0 0.0
2017-Nov-16 19:25N 66°18' E 014°07'0 0.0
2017-Nov-16 18:58N 66°18' E 014°07'0 0.0
2017-Nov-16 18:28N 66°18' E 014°07'0 0.0
2017-Nov-16 17:58N 66°18' E 014°07'0 0.0
2017-Nov-16 17:28N 66°18' E 014°07'0 0.0
2017-Nov-16 16:58N 66°18' E 014°07'0 0.0
2017-Nov-16 16:28N 66°18' E 014°07'0 0.0
2017-Nov-16 15:58N 66°18' E 014°07'0 0.0
2017-Nov-16 15:28N 66°18' E 014°07'0 0.0
2017-Nov-16 14:58N 66°18' E 014°07'0 0.0
2017-Nov-16 14:28N 66°18' E 014°07'0 0.0
2017-Nov-16 13:58N 66°18' E 014°07'0 0.0
2017-Nov-16 13:28N 66°18' E 014°07'0 0.0
2017-Nov-16 12:58N 66°18' E 014°07'0 0.0
2017-Nov-16 12:28N 66°18' E 014°07'0 0.0
2017-Nov-16 11:58N 66°18' E 014°07'0 0.0
2017-Nov-16 11:28N 66°18' E 014°07'0 0.0
2017-Nov-16 10:58N 66°18' E 014°07'0 0.5
2017-Nov-16 10:30N 66°18' E 014°06'510.0
2017-Nov-16 09:59N 66°16' E 013°55'511.2
2017-Nov-16 09:30N 66°15' E 013°42'510.6
2017-Nov-16 09:00N 66°14' E 013°29'5 9.7
2017-Nov-16 08:30N 66°14' E 013°17'611.1
2017-Nov-16 08:00N 66°11' E 013°06'611.2
2017-Nov-16 07:30N 66°10' E 012°52'510.8
2017-Nov-16 07:00N 66°13' E 012°41'5 9.5
2017-Nov-16 06:30N 66°15' E 012°31'5 9.8
2017-Nov-16 06:00N 66°17' E 012°19'5 9.9
2017-Nov-16 05:30N 66°19' E 012°09'510.1
2017-Nov-16 05:00N 66°23' E 011°59'5 9.9
2017-Nov-16 04:30N 66°26' E 011°51'5 9.0
2017-Nov-16 04:00N 66°30' E 011°47'4 7.7
2017-Nov-16 03:30N 66°34' E 011°51'4 7.7
2017-Nov-16 02:59N 66°37' E 011°56'31 8.1
2017-Nov-15 23:07N 67°03' E 012°43'1 9.1
2017-Nov-15 23:00N 67°04' E 012°45'4 8.9
2017-Nov-15 22:30N 67°07' E 012°52'5 9.3
2017-Nov-15 22:00N 67°11' E 012°58'5 9.0
2017-Nov-15 21:30N 67°15' E 013°05'4 9.0
2017-Nov-15 21:00N 67°18' E 013°13'5 9.6
2017-Nov-15 20:30N 67°22' E 013°20'5 9.8
2017-Nov-15 20:00N 67°26' E 013°28'5 9.9
2017-Nov-15 19:30N 67°30' E 013°37'5 9.9
2017-Nov-15 19:00N 67°33' E 013°45'5 9.7
2017-Nov-15 18:30N 67°37' E 013°53'5 9.6
2017-Nov-15 18:00N 67°41' E 014°00'5 9.8
2017-Nov-15 17:30N 67°45' E 014°08'5 9.4
2017-Nov-15 17:00N 67°49' E 014°16'5 9.5
2017-Nov-15 16:30N 67°52' E 014°25'510.0
2017-Nov-15 16:01N 67°55' E 014°35'510.0
2017-Nov-15 15:30N 67°58' E 014°46'5 9.8
2017-Nov-15 15:00N 68°01' E 014°56'510.3
2017-Nov-15 14:30N 68°05' E 015°06'510.5
2017-Nov-15 14:00N 68°08' E 015°16'510.2
2017-Nov-15 13:30N 68°12' E 015°27'2 3.3
2017-Nov-15 13:00N 68°13' E 015°26'510.2
2017-Nov-15 12:29N 68°12' E 015°12'5 9.9
2017-Nov-15 12:00N 68°12' E 014°59'4 8.3
2017-Nov-15 11:30N 68°16' E 014°58'5 9.9
2017-Nov-15 11:01N 68°21' E 015°02'4 8.8
2017-Nov-15 10:30N 68°25' E 015°08'5 9.0
2017-Nov-15 10:00N 68°29' E 015°13'5 9.7
2017-Nov-15 09:30N 68°33' E 015°05'  

Dump ship's entire track history